Time;durP1;ratioP1;P1;durP2;ratioP2;P2;SDS_P1;SDS_P2;PMS_P1;PMS_P2;Temp;Humidity;BMP_temperature;BMP_pressure;BME280_temperature;BME280_humidity;BME280_pressure;Samples;Min_cycle;Max_cycle;Signal;HPM_P1;HPM_P2
2023/08/28 00:02:19;;;;;;;10.60;9.60;;;;;;;11.26;100.00;100905.88;5102981;28;20023;-77
2023/08/28 00:04:45;;;;;;;10.00;8.95;;;;;;;11.29;100.00;100925.22;5105546;28;20031;-77
2023/08/28 00:07:10;;;;;;;10.27;9.27;;;;;;;11.34;100.00;100924.59;5094182;28;20463;-77
2023/08/28 00:09:36;;;;;;;11.35;9.38;;;;;;;11.35;100.00;100921.69;5096297;28;20032;-77
2023/08/28 00:12:02;;;;;;;9.88;8.95;;;;;;;11.39;100.00;100924.81;5105856;28;20028;-76
2023/08/28 00:14:31;;;;;;;9.50;8.57;;;;;;;11.46;100.00;100912.19;5102389;28;20476;-77
2023/08/28 00:16:57;;;;;;;10.50;9.10;;;;;;;11.55;100.00;100920.13;5104137;28;20028;-77
2023/08/28 00:19:22;;;;;;;9.38;8.00;;;;;;;11.56;100.00;100928.00;5100910;28;20034;-76
2023/08/28 00:21:48;;;;;;;9.20;8.27;;;;;;;11.64;100.00;100932.38;5105099;28;20134;-77
2023/08/28 00:24:13;;;;;;;9.43;8.38;;;;;;;11.64;100.00;100935.94;5100031;28;20028;-77
2023/08/28 00:26:39;;;;;;;9.60;8.70;;;;;;;11.65;100.00;100937.56;5103087;28;20030;-79
2023/08/28 00:29:04;;;;;;;9.45;8.15;;;;;;;11.58;100.00;100934.03;5104637;28;20356;-76
2023/08/28 00:31:30;;;;;;;8.73;7.93;;;;;;;11.58;100.00;100942.13;5102812;28;20023;-76
2023/08/28 00:33:58;;;;;;;9.52;8.60;;;;;;;11.60;100.00;100942.75;5107413;28;20020;-76
2023/08/28 00:36:23;;;;;;;9.15;8.27;;;;;;;11.52;100.00;100951.00;5103211;28;20032;-77
2023/08/28 00:38:49;;;;;;;9.77;8.60;;;;;;;11.59;100.00;100945.63;5096555;28;20030;-76
2023/08/28 00:41:14;;;;;;;8.93;7.97;;;;;;;11.61;100.00;100947.13;5109831;28;20032;-77
2023/08/28 00:43:40;;;;;;;8.88;8.05;;;;;;;11.42;100.00;100950.56;5097700;28;20089;-77
2023/08/28 00:46:05;;;;;;;9.35;8.40;;;;;;;11.44;100.00;100953.88;5104329;28;20080;-77
2023/08/28 00:48:31;;;;;;;9.07;8.20;;;;;;;11.48;100.00;100947.03;5099713;28;20387;-76
2023/08/28 00:50:56;;;;;;;9.10;8.23;;;;;;;11.42;100.00;100955.94;5098240;28;20434;-76
2023/08/28 00:53:23;;;;;;;9.02;8.13;;;;;;;11.36;100.00;100955.69;5087555;28;20554;-76
2023/08/28 00:55:48;;;;;;;9.57;8.32;;;;;;;11.25;100.00;100950.03;5083858;28;21841;-76
2023/08/28 00:58:14;;;;;;;9.80;8.88;;;;;;;11.16;100.00;100943.97;5084628;28;20031;-77
2023/08/28 01:00:42;;;;;;;9.75;8.65;;;;;;;11.06;100.00;100939.78;5098881;28;20463;-76
2023/08/28 01:03:07;;;;;;;9.88;8.88;;;;;;;10.99;100.00;100938.09;5101905;28;20027;-76
2023/08/28 01:05:47;;;;;;;12.27;9.27;;;;;;;10.95;100.00;100934.94;5096505;28;20020;-76
2023/08/28 01:08:50;;;;;;;10.82;9.13;;;;;;;10.92;100.00;100938.06;5104540;28;20024;-77
2023/08/28 01:11:28;;;;;;;9.95;8.60;;;;;;;10.97;100.00;100940.97;5034548;28;20069;-76
2023/08/28 01:14:20;;;;;;;9.57;8.68;;;;;;;10.94;100.00;100938.69;5071928;28;20028;-77
2023/08/28 01:16:45;;;;;;;9.75;8.75;;;;;;;10.88;100.00;100945.66;5095001;28;20047;-77
2023/08/28 01:19:37;;;;;;;10.68;8.88;;;;;;;10.89;100.00;100943.81;5087755;28;20054;-76
2023/08/28 01:22:23;;;;;;;10.73;9.07;;;;;;;10.90;100.00;100940.94;5100631;28;20498;-76
2023/08/28 01:25:09;;;;;;;10.18;9.18;;;;;;;10.92;100.00;100943.44;5068798;28;20036;-76
2023/08/28 01:27:38;;;;;;;10.23;8.70;;;;;;;10.86;100.00;100945.03;5100818;28;20043;-77
2023/08/28 01:30:13;;;;;;;10.70;8.98;;;;;;;10.79;100.00;100937.94;5079428;28;20019;-76
2023/08/28 01:32:39;;;;;;;9.75;8.73;;;;;;;10.64;100.00;100941.56;5102710;28;20032;-76
2023/08/28 01:35:15;;;;;;;9.88;8.88;;;;;;;10.52;100.00;100932.38;5087160;28;20527;-77
2023/08/28 01:37:52;;;;;;;10.75;9.35;;;;;;;10.39;100.00;100935.78;5115962;28;20020;-76
2023/08/28 01:40:21;;;;;;;10.43;9.30;;;;;;;10.36;100.00;100936.97;5084945;28;20495;-76
2023/08/28 01:42:46;;;;;;;11.88;10.05;;;;;;;10.28;100.00;100931.69;5065045;28;20408;-77
2023/08/28 01:45:15;;;;;;;12.40;10.05;;;;;;;10.36;100.00;100928.03;5085790;28;20024;-76
2023/08/28 01:47:41;;;;;;;10.45;9.35;;;;;;;10.42;100.00;100936.19;5073172;28;20047;-77
2023/08/28 01:50:07;;;;;;;11.38;9.43;;;;;;;10.46;100.00;100940.19;5088300;28;20023;-77
2023/08/28 01:52:33;;;;;;;10.25;9.25;;;;;;;10.40;100.00;100932.91;5108953;28;20027;-77
2023/08/28 01:54:58;;;;;;;11.25;9.82;;;;;;;10.32;100.00;100927.59;5105392;28;20027;-77
2023/08/28 01:57:24;;;;;;;11.35;10.23;;;;;;;10.31;100.00;100928.63;5086309;28;20028;-76
2023/08/28 01:59:49;;;;;;;12.90;10.15;;;;;;;10.25;100.00;100932.09;5113317;28;20035;-77
2023/08/28 02:02:14;;;;;;;13.38;10.50;;;;;;;10.24;100.00;100927.72;5108133;28;20804;-76
2023/08/28 02:04:40;;;;;;;13.27;10.93;;;;;;;10.23;100.00;100928.78;5108399;28;20027;-76
2023/08/28 02:07:05;;;;;;;13.00;10.90;;;;;;;10.24;100.00;100935.81;5096079;28;20164;-76
2023/08/28 02:09:31;;;;;;;11.88;10.20;;;;;;;10.34;100.00;100924.72;5105298;28;20016;-76
2023/08/28 02:11:56;;;;;;;11.43;10.00;;;;;;;10.32;100.00;100922.22;5103521;28;20733;-76
2023/08/28 02:14:22;;;;;;;12.60;10.27;;;;;;;10.26;100.00;100928.38;5098373;28;20024;-76
2023/08/28 02:16:47;;;;;;;14.73;10.75;;;;;;;10.24;100.00;100920.50;5102757;28;20024;-77
2023/08/28 02:19:12;;;;;;;12.57;10.70;;;;;;;10.35;100.00;100923.69;5102297;28;20028;-76
2023/08/28 02:21:38;;;;;;;13.25;10.35;;;;;;;10.41;100.00;100928.34;5105463;28;20043;-76
2023/08/28 02:24:03;;;;;;;11.73;10.23;;;;;;;10.45;100.00;100929.63;5100897;28;20027;-76
2023/08/28 02:26:29;;;;;;;10.90;9.80;;;;;;;10.51;100.00;100926.13;5105519;28;20024;-79
2023/08/28 02:28:54;;;;;;;11.90;10.55;;;;;;;10.42;100.00;100916.53;5103902;28;20019;-77
2023/08/28 02:31:21;;;;;;;12.15;10.50;;;;;;;10.43;100.00;100924.41;5106128;28;20032;-76
2023/08/28 02:33:46;;;;;;;12.52;11.23;;;;;;;10.50;100.00;100921.78;5102049;28;20047;-77
2023/08/28 02:36:13;;;;;;;14.55;10.18;;;;;;;10.47;100.00;100919.50;5108927;28;20020;-77
2023/08/28 02:38:38;;;;;;;11.73;10.52;;;;;;;10.36;100.00;100918.13;5106012;28;20511;-76
2023/08/28 02:41:04;;;;;;;12.73;10.63;;;;;;;10.30;100.00;100917.06;5098054;28;20046;-77
2023/08/28 02:43:30;;;;;;;14.65;11.07;;;;;;;10.18;100.00;100925.81;5097785;28;20102;-77
2023/08/28 02:45:55;;;;;;;11.10;10.00;;;;;;;9.99;100.00;100922.75;5101669;28;20158;-79
2023/08/28 02:48:21;;;;;;;12.13;10.82;;;;;;;9.83;100.00;100913.91;5100840;28;20032;-77
2023/08/28 02:50:49;;;;;;;13.02;11.68;;;;;;;9.68;100.00;100905.06;5100045;28;20036;-77
2023/08/28 02:53:15;;;;;;;12.73;10.30;;;;;;;9.56;100.00;100900.16;5103129;28;20088;-77
2023/08/28 02:55:41;;;;;;;12.35;11.05;;;;;;;9.52;100.00;100906.94;5105152;28;20024;-76
2023/08/28 02:58:06;;;;;;;13.07;11.68;;;;;;;9.65;100.00;100906.25;5098619;28;20043;-76
2023/08/28 03:00:33;;;;;;;14.18;11.73;;;;;;;9.65;100.00;100910.81;5094206;28;20028;-76
2023/08/28 03:02:58;;;;;;;14.88;12.27;;;;;;;9.78;100.00;100919.00;5105510;28;20069;-76
2023/08/28 03:05:23;;;;;;;14.25;12.00;;;;;;;9.88;100.00;100925.94;5100435;28;20020;-77
2023/08/28 03:07:49;;;;;;;14.95;11.77;;;;;;;9.97;100.00;100931.00;5109142;28;20494;-77
2023/08/28 03:10:14;;;;;;;15.40;12.98;;;;;;;9.97;100.00;100940.94;5101953;28;20043;-77
2023/08/28 03:12:40;;;;;;;14.23;12.27;;;;;;;9.98;100.00;100939.91;5094655;28;20024;-76
2023/08/28 03:15:06;;;;;;;14.88;13.07;;;;;;;10.03;100.00;100945.56;5102667;28;20024;-77
2023/08/28 03:17:31;;;;;;;15.10;12.68;;;;;;;9.99;100.00;100945.09;5095568;28;20093;-76
2023/08/28 03:19:56;;;;;;;15.40;12.52;;;;;;;10.05;100.00;100937.28;5085949;28;20123;-76
2023/08/28 03:22:22;;;;;;;15.32;12.90;;;;;;;10.10;100.00;100941.06;5110358;28;20024;-76
2023/08/28 03:24:47;;;;;;;18.60;14.02;;;;;;;10.14;100.00;100941.53;5096912;28;20030;-76
2023/08/28 03:27:13;;;;;;;18.13;13.20;;;;;;;10.13;100.00;100932.59;5105153;28;20032;-76
2023/08/28 03:29:38;;;;;;;14.43;12.93;;;;;;;10.13;100.00;100939.88;5100436;28;20394;-77
2023/08/28 03:32:04;;;;;;;14.75;12.93;;;;;;;10.13;100.00;100939.88;5100978;28;20043;-76
2023/08/28 03:34:30;;;;;;;17.40;13.40;;;;;;;10.13;100.00;100953.31;5097494;28;20030;-76
2023/08/28 03:36:55;;;;;;;17.92;14.00;;;;;;;10.16;100.00;100950.22;5107050;28;20039;-76
2023/08/28 03:39:21;;;;;;;15.90;13.35;;;;;;;10.16;100.00;100951.06;5107465;28;20043;-76
2023/08/28 03:41:46;;;;;;;14.88;13.27;;;;;;;10.16;100.00;100945.69;5094851;28;20039;-77
2023/08/28 03:44:11;;;;;;;16.67;13.45;;;;;;;10.14;100.00;100941.53;5101436;28;20027;-76
2023/08/28 03:46:37;;;;;;;16.55;13.57;;;;;;;10.10;100.00;100946.44;5105327;28;20031;-76
2023/08/28 03:49:03;;;;;;;16.33;13.45;;;;;;;10.09;100.00;100955.53;5095373;28;20024;-76
2023/08/28 03:51:29;;;;;;;16.15;13.77;;;;;;;10.09;100.00;100952.84;5108812;28;20498;-78
2023/08/28 03:53:54;;;;;;;15.50;13.88;;;;;;;10.02;100.00;100955.47;5105788;28;20030;-78
2023/08/28 03:56:20;;;;;;;16.00;14.15;;;;;;;10.01;100.00;100959.19;5101950;28;20112;-78
2023/08/28 03:58:45;;;;;;;16.35;13.88;;;;;;;10.04;100.00;100962.50;5102324;28;20031;-75
2023/08/28 04:01:11;;;;;;;18.33;14.75;;;;;;;10.05;100.00;100965.03;5102187;28;20023;-75
2023/08/28 04:03:36;;;;;;;18.25;14.38;;;;;;;10.01;100.00;100975.31;5105002;28;20015;-75
2023/08/28 04:06:01;;;;;;;15.75;14.02;;;;;;;9.93;100.00;100972.75;5099977;28;20024;-78
2023/08/28 04:08:27;;;;;;;16.55;14.35;;;;;;;9.86;100.00;100983.44;5106050;28;20066;-79
2023/08/28 04:10:53;;;;;;;18.58;14.75;;;;;;;9.95;100.00;100983.31;5097396;28;20047;-79
2023/08/28 04:13:18;;;;;;;20.08;15.10;;;;;;;10.02;100.00;100989.59;5104256;28;20028;-75
2023/08/28 04:15:47;;;;;;;18.88;15.85;;;;;;;10.04;100.00;100992.94;5107446;28;20038;-76
2023/08/28 04:18:12;;;;;;;18.05;15.18;;;;;;;10.09;100.00;100993.19;5098254;28;20130;-81
2023/08/28 04:20:41;;;;;;;18.33;15.82;;;;;;;10.13;100.00;100999.84;5097565;28;20058;-76
2023/08/28 04:23:06;;;;;;;20.40;15.60;;;;;;;10.15;100.00;100997.81;5107873;28;20110;-76
2023/08/28 04:25:31;;;;;;;18.92;16.42;;;;;;;10.18;100.00;100995.78;5104705;28;20437;-76
2023/08/28 04:27:57;;;;;;;21.25;16.65;;;;;;;10.19;100.00;100994.75;5100356;28;20032;-76
2023/08/28 04:30:22;;;;;;;21.48;16.70;;;;;;;10.15;100.00;100997.81;5097993;28;20062;-77
2023/08/28 04:32:48;;;;;;;20.67;16.75;;;;;;;10.11;100.00;100999.22;5103014;28;20046;-77
2023/08/28 04:35:13;;;;;;;19.65;15.85;;;;;;;10.13;100.00;100994.47;5102450;28;20589;-77
2023/08/28 04:37:42;;;;;;;20.30;16.83;;;;;;;10.06;100.00;100981.97;5098824;28;20039;-77
2023/08/28 04:40:08;;;;;;;19.05;16.23;;;;;;;9.97;100.00;100992.03;5095780;28;20536;-77
2023/08/28 04:42:33;;;;;;;26.10;18.95;;;;;;;9.88;100.00;100990.50;5102349;28;20097;-76
2023/08/28 04:44:58;;;;;;;26.67;18.80;;;;;;;9.78;100.00;100988.91;5113328;28;20030;-76
2023/08/28 04:47:24;;;;;;;23.48;18.55;;;;;;;9.80;100.00;100994.09;5111210;28;20020;-76
2023/08/28 04:49:49;;;;;;;25.98;19.67;;;;;;;9.85;100.00;100994.38;5103653;28;20487;-76
2023/08/28 04:52:15;;;;;;;23.02;18.65;;;;;;;9.91;100.00;100995.47;5110296;28;20027;-79
2023/08/28 04:54:40;;;;;;;28.77;19.40;;;;;;;9.97;100.00;100983.97;5102431;28;20030;-79
2023/08/28 04:57:05;;;;;;;26.73;20.10;;;;;;;10.07;100.00;100979.09;5097452;28;20020;-76
2023/08/28 04:59:31;;;;;;;25.60;19.70;;;;;;;10.17;100.00;100978.78;5104119;28;20077;-76
2023/08/28 05:01:57;;;;;;;24.83;19.02;;;;;;;10.28;100.00;100977.44;5107747;28;20027;-76
2023/08/28 05:04:22;;;;;;;25.00;19.40;;;;;;;10.35;100.00;100969.44;5101718;28;20027;-78
2023/08/28 05:06:48;;;;;;;26.50;19.25;;;;;;;10.51;100.00;100979.16;5103156;28;20042;-77
2023/08/28 05:09:13;;;;;;;25.23;19.92;;;;;;;10.53;100.00;100979.78;5097438;28;20042;-77
2023/08/28 05:11:38;;;;;;;25.33;18.90;;;;;;;10.51;100.00;100977.28;5099212;28;20027;-77
2023/08/28 05:14:04;;;;;;;25.48;20.58;;;;;;;10.63;100.00;100980.28;5097217;28;20379;-77
2023/08/28 05:16:29;;;;;;;24.05;19.80;;;;;;;10.70;100.00;100962.34;5102486;28;20042;-77
2023/08/28 05:18:54;;;;;;;24.23;19.67;;;;;;;10.77;100.00;100968.59;5108243;28;20031;-77
2023/08/28 05:21:20;;;;;;;26.10;20.20;;;;;;;10.87;100.00;100978.19;5101676;28;20411;-76
2023/08/28 05:23:45;;;;;;;24.40;19.60;;;;;;;11.09;100.00;100983.53;5103610;28;20020;-76
2023/08/28 05:26:11;;;;;;;22.33;18.95;;;;;;;11.21;100.00;100971.16;5101117;28;20110;-76
2023/08/28 05:28:37;;;;;;;21.45;19.00;;;;;;;11.37;100.00;100978.94;5104663;28;20028;-76
2023/08/28 05:31:03;;;;;;;21.05;17.35;;;;;;;11.47;100.00;100980.44;5099734;28;20028;-76
2023/08/28 05:33:29;;;;;;;20.42;18.05;;;;;;;11.67;100.00;100967.84;5108174;28;20456;-76
2023/08/28 05:35:55;;;;;;;20.10;17.40;;;;;;;11.77;100.00;100975.56;5106792;28;20028;-76
2023/08/28 05:38:20;;;;;;;19.42;17.05;;;;;;;11.94;100.00;100986.84;5106449;28;20034;-78
2023/08/28 05:40:46;;;;;;;18.73;16.73;;;;;;;12.11;100.00;100986.50;5106694;28;20080;-76
2023/08/28 05:43:11;;;;;;;17.92;16.13;;;;;;;12.25;100.00;100982.81;5108307;28;20031;-76
2023/08/28 05:45:37;;;;;;;15.95;14.27;;;;;;;12.28;100.00;100990.50;5110674;28;20082;-77
2023/08/28 05:48:03;;;;;;;15.25;13.70;;;;;;;12.38;100.00;100994.66;5112851;28;20034;-76
2023/08/28 05:50:28;;;;;;;16.52;14.90;;;;;;;12.47;100.00;100992.59;5109330;28;20376;-77
2023/08/28 05:52:53;;;;;;;15.02;13.55;;;;;;;12.77;100.00;100992.19;5110604;28;20169;-76
2023/08/28 05:55:19;;;;;;;14.07;12.70;;;;;;;12.89;100.00;100988.63;5097656;28;20048;-77
2023/08/28 05:57:44;;;;;;;13.05;11.77;;;;;;;12.80;100.00;100986.34;5105457;28;20028;-77
2023/08/28 06:00:13;;;;;;;14.98;13.50;;;;;;;12.72;100.00;100987.41;5102206;28;20485;-83
2023/08/28 06:02:39;;;;;;;13.45;12.15;;;;;;;12.81;100.00;100994.28;5109790;28;20105;-79
2023/08/28 06:05:05;;;;;;;15.27;13.77;;;;;;;12.59;100.00;101007.97;5103855;28;20065;-77
2023/08/28 06:07:31;;;;;;;14.52;12.98;;;;;;;12.82;100.00;101001.34;5104457;28;20076;-78
2023/08/28 06:09:56;;;;;;;15.20;11.40;;;;;;;13.24;100.00;101005.66;5103820;28;20043;-77
2023/08/28 06:12:22;;;;;;;12.88;11.50;;;;;;;13.28;100.00;100999.63;5108613;28;20069;-78
2023/08/28 06:14:47;;;;;;;13.63;12.23;;;;;;;12.88;100.00;100992.38;5105400;28;20077;-77
2023/08/28 06:17:13;;;;;;;14.43;12.93;;;;;;;12.74;100.00;100983.47;5104425;28;20035;-78
2023/08/28 06:19:38;;;;;;;15.23;11.88;;;;;;;12.91;100.00;100982.19;5102762;28;20016;-78
2023/08/28 06:22:06;;;;;;;14.30;12.80;;;;;;;13.09;100.00;100978.84;5109962;27;20040;-77
2023/08/28 06:24:32;;;;;;;13.02;11.82;;;;;;;13.25;100.00;100989.22;5111265;28;20478;-78
2023/08/28 06:26:57;;;;;;;12.95;11.70;;;;;;;13.51;100.00;100992.91;5087365;28;20027;-77
2023/08/28 06:29:23;;;;;;;12.95;11.40;;;;;;;13.77;100.00;100997.41;5105789;28;20403;-78
2023/08/28 06:31:49;;;;;;;13.02;11.70;;;;;;;13.88;99.64;101003.19;5104149;28;20417;-77
2023/08/28 06:36:45;;;;;;;12.32;11.13;;;;;;;13.87;98.87;100996.13;5033508;28;20060;-78
2023/08/28 06:39:11;;;;;;;13.15;11.77;;;;;;;13.95;98.43;101003.97;5035432;28;20025;-78
2023/08/28 06:41:37;;;;;;;13.18;11.98;;;;;;;13.91;98.58;100997.34;5038352;28;20112;-77
2023/08/28 06:44:04;;;;;;;14.45;11.50;;;;;;;13.86;100.00;101005.28;5031287;28;20489;-77
2023/08/28 06:46:30;;;;;;;12.40;11.07;;;;;;;14.02;98.81;101003.97;5033959;28;20037;-78
2023/08/28 06:48:55;;;;;;;12.75;11.48;;;;;;;14.02;98.31;101012.91;5031450;28;20092;-78
2023/08/28 06:51:21;;;;;;;13.95;12.68;;;;;;;13.67;100.00;101013.25;5030443;28;20393;-78
2023/08/28 06:53:48;;;;;;;13.15;11.88;;;;;;;13.62;100.00;101000.38;5032660;28;20379;-78
2023/08/28 06:56:13;;;;;;;13.60;12.20;;;;;;;13.70;100.00;101012.84;5032374;28;20454;-78
2023/08/28 06:58:39;;;;;;;13.65;11.40;;;;;;;13.91;100.00;101008.19;5033400;28;20079;-78
2023/08/28 07:01:07;;;;;;;12.43;11.23;;;;;;;14.24;99.04;101012.59;5032067;28;20022;-79
2023/08/28 07:03:32;;;;;;;12.98;10.85;;;;;;;14.33;99.34;101005.84;5031127;28;20080;-78
2023/08/28 07:05:58;;;;;;;13.98;10.95;;;;;;;14.52;97.66;101014.06;5032424;28;20018;-78
2023/08/28 07:08:23;;;;;;;11.98;10.77;;;;;;;14.65;96.88;101019.38;5032962;28;20033;-78
2023/08/28 07:10:49;;;;;;;12.38;11.07;;;;;;;14.74;96.80;101016.44;5031430;28;20433;-77
2023/08/28 07:13:14;;;;;;;12.02;10.93;;;;;;;14.93;95.53;101020.88;5032855;28;20033;-79
2023/08/28 07:15:40;;;;;;;12.35;10.60;;;;;;;15.06;94.25;101019.06;5029059;28;20026;-79
2023/08/28 07:18:05;;;;;;;10.80;9.80;;;;;;;15.12;93.14;101020.91;5030278;28;20033;-80
2023/08/28 07:20:31;;;;;;;11.82;10.63;;;;;;;15.15;92.70;101024.00;5033366;28;20087;-79
2023/08/28 07:22:57;;;;;;;12.68;10.90;;;;;;;15.31;92.66;101011.75;5032949;28;20036;-79
2023/08/28 07:25:22;;;;;;;12.88;10.30;;;;;;;15.90;93.18;101024.03;5030420;28;20025;-79
2023/08/28 07:27:48;;;;;;;11.50;9.25;;;;;;;17.17;86.74;101025.91;5031548;28;20025;-81
2023/08/28 07:30:14;;;;;;;9.50;8.60;;;;;;;18.31;79.16;101029.91;5031164;28;20025;-78
2023/08/28 07:32:39;;;;;;;9.57;8.65;;;;;;;19.01;74.01;101028.91;5030101;28;20025;-82
2023/08/28 07:35:05;;;;;;;9.50;8.63;;;;;;;19.28;72.31;101036.38;5032680;28;20041;-79
2023/08/28 07:37:33;;;;;;;8.00;7.20;;;;;;;20.78;67.32;101024.44;5032629;28;20071;-79
2023/08/28 07:39:58;;;;;;;8.55;7.82;;;;;;;20.92;64.40;101022.06;5028836;28;20363;-80
2023/08/28 07:42:24;;;;;;;7.40;6.68;;;;;;;22.05;62.73;101030.09;5032449;28;20378;-79
2023/08/28 07:44:49;;;;;;;7.35;6.65;;;;;;;22.95;58.49;101033.44;5043143;28;20026;-80
2023/08/28 07:47:14;;;;;;;7.75;6.75;;;;;;;23.56;55.69;101035.25;5045004;28;20033;-80
2023/08/28 07:49:41;;;;;;;8.27;7.47;;;;;;;22.80;56.37;101034.28;5035127;28;20381;-81
2023/08/28 07:52:07;;;;;;;7.40;6.80;;;;;;;22.15;58.82;101037.50;5046886;28;20191;-80
2023/08/28 07:54:32;;;;;;;7.07;6.40;;;;;;;21.99;60.37;101044.84;5045670;28;20454;-81
2023/08/28 07:56:58;;;;;;;8.52;6.88;;;;;;;22.63;57.26;101042.78;5027680;28;20025;-80
2023/08/28 07:59:23;;;;;;;8.90;7.53;;;;;;;22.53;60.76;101041.69;5037302;28;20081;-80
2023/08/28 08:01:49;;;;;;;6.53;5.78;;;;;;;25.14;49.84;101049.38;5029976;28;20053;-81
2023/08/28 08:04:14;;;;;;;7.55;6.80;;;;;;;23.36;54.15;101052.63;5034574;28;20029;-80
2023/08/28 08:06:39;;;;;;;7.75;6.82;;;;;;;21.88;60.06;101047.56;5037558;28;20028;-81
2023/08/28 08:09:05;;;;;;;7.15;6.45;;;;;;;23.40;56.88;101042.75;5032798;28;20029;-81
2023/08/28 08:11:30;;;;;;;6.75;6.05;;;;;;;23.67;53.67;101044.28;5015618;28;20047;-81
2023/08/28 08:14:00;;;;;;;6.50;5.90;;;;;;;22.16;58.92;101048.19;5029963;28;20083;-81
2023/08/28 08:16:25;;;;;;;7.80;7.10;;;;;;;22.56;57.42;101051.31;5028951;28;20389;-80
2023/08/28 08:18:51;;;;;;;8.57;7.05;;;;;;;22.88;57.00;101050.19;5031148;28;20021;-80
2023/08/28 08:21:16;;;;;;;8.20;6.43;;;;;;;23.21;56.42;101042.50;5017312;28;20060;-81
2023/08/28 08:23:42;;;;;;;8.68;5.82;;;;;;;24.92;49.69;101045.19;5030325;28;20036;-80
2023/08/28 08:26:07;;;;;;;5.97;5.38;;;;;;;25.87;47.63;101043.88;5032710;28;20017;-81
2023/08/28 08:28:33;;;;;;;6.18;5.60;;;;;;;25.18;49.68;101041.34;5031727;28;20196;-81
2023/08/28 08:30:58;;;;;;;5.95;4.43;;;;;;;25.18;50.91;101050.44;5030307;28;20098;-79
2023/08/28 08:33:24;;;;;;;6.50;5.80;;;;;;;25.40;48.49;101040.84;5029059;28;20537;-80
2023/08/28 08:35:49;;;;;;;6.80;5.32;;;;;;;25.31;49.21;101037.09;5034651;28;20053;-81
2023/08/28 08:38:14;;;;;;;6.93;5.70;;;;;;;24.98;49.40;101037.69;5030768;28;20567;-80
2023/08/28 08:40:40;;;;;;;5.85;5.35;;;;;;;24.70;51.86;101025.53;5031837;28;20045;-80
2023/08/28 08:43:05;;;;;;;7.25;5.60;;;;;;;26.55;46.32;101039.06;5033683;28;20100;-80
2023/08/28 08:45:31;;;;;;;5.15;4.68;;;;;;;27.74;43.17;101044.38;5031970;28;20037;-80
2023/08/28 08:47:57;;;;;;;6.18;5.40;;;;;;;25.98;46.15;101044.56;4991236;28;20466;-80
2023/08/28 08:50:23;;;;;;;6.15;5.60;;;;;;;25.66;48.52;101046.09;5028475;28;20504;-80
2023/08/28 08:52:49;;;;;;;4.95;4.43;;;;;;;25.86;47.61;101047.75;5031294;28;20026;-81
2023/08/28 08:55:27;;;;;;;5.88;5.10;;;;;;;27.16;45.10;101060.44;5007350;28;20379;-81
2023/08/28 08:57:55;;;;;;;6.15;5.57;;;;;;;26.75;46.07;101051.72;5010297;28;20025;-81
2023/08/28 09:00:21;;;;;;;5.75;5.30;;;;;;;27.61;43.15;101044.09;5017363;28;20030;-81
2023/08/28 09:02:46;;;;;;;4.47;4.07;;;;;;;29.29;39.10;101049.81;5030171;28;20083;-81
2023/08/28 09:05:12;;;;;;;4.70;4.20;;;;;;;29.42;39.17;101052.81;4991839;28;20033;-81
2023/08/28 09:07:38;;;;;;;5.13;4.70;;;;;;;26.42;43.98;101048.94;5008339;28;20037;-81
2023/08/28 09:10:04;;;;;;;4.65;3.90;;;;;;;26.34;45.81;101052.34;5030345;28;20029;-81
2023/08/28 09:12:30;;;;;;;6.22;3.97;;;;;;;27.65;42.53;101039.56;5028967;28;20025;-81
2023/08/28 09:14:55;;;;;;;4.70;4.30;;;;;;;27.68;43.93;101050.03;5029899;28;20022;-80
2023/08/28 09:17:21;;;;;;;5.18;4.57;;;;;;;27.06;47.63;101039.31;4995412;28;20099;-80
2023/08/28 09:19:47;;;;;;;3.30;2.95;;;;;;;26.74;43.38;101039.00;5030251;28;20040;-81
2023/08/28 09:22:13;;;;;;;3.35;2.72;;;;;;;27.75;40.63;101038.53;5010065;28;20021;-80
2023/08/28 09:24:41;;;;;;;6.35;3.70;;;;;;;27.16;45.76;101028.06;5053337;22;20067;-79
2023/08/28 09:27:06;;;;;;;4.40;4.00;;;;;;;25.81;46.24;101023.03;5049047;28;20025;-80
2023/08/28 09:29:32;;;;;;;4.00;3.50;;;;;;;24.34;48.61;101023.88;5002359;28;20091;-80
2023/08/28 09:32:04;;;;;;;4.55;3.53;;;;;;;22.67;54.79;101025.53;5013894;28;20436;-80
2023/08/28 09:34:40;;;;;;;5.53;3.45;;;;;;;21.42;55.83;101028.13;5050642;28;20111;-80
2023/08/28 09:37:09;;;;;;;5.38;4.20;;;;;;;22.05;57.15;101019.13;5045596;28;20032;-80
2023/08/28 09:42:04;;;;;;;7.35;3.63;;;;;;;24.05;48.80;101019.94;5128721;22;20382;-80
2023/08/28 09:44:34;;;;;;;3.35;3.05;;;;;;;25.17;47.51;101024.00;5048178;28;20043;-80
2023/08/28 09:46:59;;;;;;;3.90;2.78;;;;;;;25.96;44.60;101031.06;5049011;28;20025;-80
2023/08/28 09:49:25;;;;;;;4.25;3.58;;;;;;;24.79;49.46;101037.59;5047622;28;20066;-79
2023/08/28 09:51:50;;;;;;;4.68;3.50;;;;;;;23.61;50.06;101037.19;5042849;28;20046;-80
2023/08/28 09:54:16;;;;;;;3.47;3.03;;;;;;;24.53;47.24;101019.34;5048006;28;20110;-79
2023/08/28 09:56:42;;;;;;;4.63;3.30;;;;;;;24.85;47.06;101028.19;5050993;28;20025;-80
2023/08/28 09:59:09;;;;;;;4.50;3.58;;;;;;;24.25;48.64;101018.16;5057181;28;20025;-80
2023/08/28 10:01:35;;;;;;;3.20;2.90;;;;;;;25.27;47.22;101025.84;5047926;28;20159;-81
2023/08/28 10:04:05;;;;;;;4.63;3.10;;;;;;;26.25;45.00;101030.13;5048261;28;20029;-80
2023/08/28 10:06:33;;;;;;;3.00;2.40;;;;;;;27.35;42.09;101018.88;5025044;28;20036;-80
2023/08/28 10:09:00;;;;;;;2.28;1.70;;;;;;;28.07;37.55;101033.13;5031113;28;20047;-80
2023/08/28 10:11:36;;;;;;;2.60;2.00;;;;;;;29.12;35.52;101036.69;5050586;28;20029;-80
2023/08/28 10:14:03;;;;;;;2.28;1.77;;;;;;;26.00;40.30;101040.41;5057037;28;20025;-80
2023/08/28 10:16:29;;;;;;;4.10;1.90;;;;;;;25.82;42.21;101044.78;5041649;28;20055;-82
2023/08/28 10:19:00;;;;;;;3.05;2.58;;;;;;;25.64;43.54;101037.28;5015638;28;20025;-80
2023/08/28 10:21:28;;;;;;;2.45;2.10;;;;;;;26.32;40.45;101033.34;5026512;28;20036;-79
2023/08/28 10:23:53;;;;;;;3.17;2.40;;;;;;;24.17;43.80;101029.78;5035525;28;20086;-79
2023/08/28 10:26:19;;;;;;;4.10;2.00;;;;;;;24.21;45.10;101028.09;5020409;28;20472;-79
2023/08/28 10:28:44;;;;;;;2.50;2.00;;;;;;;26.22;40.15;101027.16;5033453;28;20037;-79
2023/08/28 10:31:10;;;;;;;1.80;1.70;;;;;;;27.69;37.50;101029.53;5035171;28;20036;-79
2023/08/28 10:33:36;;;;;;;2.33;2.13;;;;;;;26.97;39.37;101027.31;5039216;23;20053;-80
2023/08/28 10:36:01;;;;;;;3.10;1.98;;;;;;;26.51;44.10;101028.91;5050072;28;20036;-79
2023/08/28 10:38:27;;;;;;;2.28;1.90;;;;;;;26.59;41.37;101017.19;5055034;28;20017;-80
2023/08/28 10:40:54;;;;;;;4.57;2.00;;;;;;;27.60;38.18;101014.78;5048298;28;20357;-79
2023/08/28 10:43:22;;;;;;;4.47;2.15;;;;;;;26.44;41.13;101013.56;5048958;28;20045;-79
2023/08/28 10:45:48;;;;;;;4.00;2.10;;;;;;;27.30;41.96;101011.50;5046002;28;20119;-79
2023/08/28 10:48:15;;;;;;;2.33;1.50;;;;;;;26.99;39.44;101012.09;5035634;28;20028;-80
2023/08/28 10:50:40;;;;;;;3.00;1.63;;;;;;;25.85;40.46;101000.06;5052948;28;20144;-79
2023/08/28 10:53:06;;;;;;;1.85;1.60;;;;;;;26.20;40.50;101005.41;5050414;28;20499;-79
2023/08/28 10:55:31;;;;;;;1.63;1.52;;;;;;;25.84;40.76;101001.16;5062632;28;20024;-79
2023/08/28 10:58:02;;;;;;;2.13;1.90;;;;;;;25.92;43.32;101007.97;5067363;28;20029;-79
2023/08/28 11:00:28;;;;;;;2.60;1.50;;;;;;;26.16;40.69;101013.44;5062859;28;20021;-79
2023/08/28 11:03:10;;;;;;;4.07;1.85;;;;;;;25.33;41.79;100996.28;5059318;28;20448;-80
2023/08/28 11:05:38;;;;;;;2.15;1.67;;;;;;;24.67;44.37;100985.63;5057623;28;20159;-80
2023/08/28 11:08:11;;;;;;;2.42;1.80;;;;;;;25.75;41.72;100980.91;5052893;28;20020;-80
2023/08/28 11:10:37;;;;;;;2.58;1.88;;;;;;;25.83;42.32;100982.97;5052453;28;20035;-80
2023/08/28 11:13:03;;;;;;;3.20;2.20;;;;;;;25.45;42.71;100985.69;5052615;28;20033;-80
2023/08/28 11:15:30;;;;;;;5.50;2.75;;;;;;;26.42;41.18;100988.19;5051921;28;20031;-79